sensor_id;sensor_type;location;lat;lon;timestamp;pressure;altitude;pressure_sealevel;temperature;humidity
51603;BME280;37954;51.980;5.850;2023-03-20T00:03:37;101588.16;;;10.53;79.96
51603;BME280;37954;51.980;5.850;2023-03-20T00:07:49;101598.06;;;10.52;80.30
51603;BME280;37954;51.980;5.850;2023-03-20T00:12:01;101577.34;;;10.39;79.79
51603;BME280;37954;51.980;5.850;2023-03-20T00:16:13;101590.81;;;10.46;79.97
51603;BME280;37954;51.980;5.850;2023-03-20T00:20:25;101576.31;;;10.34;79.96
51603;BME280;37954;51.980;5.850;2023-03-20T00:24:37;101590.81;;;10.46;80.39
51603;BME280;37954;51.980;5.850;2023-03-20T00:28:49;101585.00;;;10.42;80.50
51603;BME280;37954;51.980;5.850;2023-03-20T00:33:01;101591.19;;;10.43;80.79
51603;BME280;37954;51.980;5.850;2023-03-20T00:37:14;101589.75;;;10.40;80.50
51603;BME280;37954;51.980;5.850;2023-03-20T00:41:32;101587.88;;;10.34;80.26
51603;BME280;37954;51.980;5.850;2023-03-20T00:45:45;101578.56;;;10.30;80.40
51603;BME280;37954;51.980;5.850;2023-03-20T00:49:58;101586.03;;;10.35;80.21
51603;BME280;37954;51.980;5.850;2023-03-20T00:54:15;101590.75;;;10.33;79.99
51603;BME280;37954;51.980;5.850;2023-03-20T00:58:28;101573.22;;;10.37;80.32
51603;BME280;37954;51.980;5.850;2023-03-20T01:02:39;101560.44;;;10.39;80.13
51603;BME280;37954;51.980;5.850;2023-03-20T01:06:51;101556.88;;;10.32;80.01
51603;BME280;37954;51.980;5.850;2023-03-20T01:11:03;101565.13;;;10.30;79.90
51603;BME280;37954;51.980;5.850;2023-03-20T01:15:24;101625.72;;;10.46;79.81
51603;BME280;37954;51.980;5.850;2023-03-20T01:19:38;101618.25;;;10.35;80.08
51603;BME280;37954;51.980;5.850;2023-03-20T01:23:49;101620.50;;;10.31;79.93
51603;BME280;37954;51.980;5.850;2023-03-20T01:28:03;101640.16;;;10.38;80.48
51603;BME280;37954;51.980;5.850;2023-03-20T01:32:22;101610.47;;;10.12;80.69
51603;BME280;37954;51.980;5.850;2023-03-20T01:36:36;101627.63;;;10.18;80.50
51603;BME280;37954;51.980;5.850;2023-03-20T01:40:58;101624.06;;;10.10;80.21
51603;BME280;37954;51.980;5.850;2023-03-20T01:45:19;101637.94;;;10.14;80.55
51603;BME280;37954;51.980;5.850;2023-03-20T01:54:26;101616.59;;;9.99;80.54
51603;BME280;37954;51.980;5.850;2023-03-20T01:58:52;101617.13;;;9.88;80.62
51603;BME280;37954;51.980;5.850;2023-03-20T02:03:07;101637.19;;;9.92;80.66
51603;BME280;37954;51.980;5.850;2023-03-20T02:07:44;101619.22;;;9.93;80.56
51603;BME280;37954;51.980;5.850;2023-03-20T02:12:00;101626.69;;;9.97;80.50
51603;BME280;37954;51.980;5.850;2023-03-20T02:16:14;101618.41;;;9.92;80.17
51603;BME280;37954;51.980;5.850;2023-03-20T02:21:18;101604.50;;;9.82;79.14
51603;BME280;37954;51.980;5.850;2023-03-20T02:30:34;101610.78;;;9.96;78.30
51603;BME280;37954;51.980;5.850;2023-03-20T02:57:08;101594.69;;;9.96;76.78
51603;BME280;37954;51.980;5.850;2023-03-20T03:01:30;101606.44;;;9.95;76.60
51603;BME280;37954;51.980;5.850;2023-03-20T03:05:50;101607.50;;;10.00;76.32
51603;BME280;37954;51.980;5.850;2023-03-20T03:14:56;101593.81;;;9.89;75.87
51603;BME280;37954;51.980;5.850;2023-03-20T03:19:15;101592.97;;;9.88;76.02
51603;BME280;37954;51.980;5.850;2023-03-20T03:23:33;101573.16;;;9.83;76.15
51603;BME280;37954;51.980;5.850;2023-03-20T03:27:50;101567.38;;;9.86;76.21
51603;BME280;37954;51.980;5.850;2023-03-20T03:32:26;101548.59;;;9.86;76.19
51603;BME280;37954;51.980;5.850;2023-03-20T03:36:51;101520.22;;;9.70;76.46
51603;BME280;37954;51.980;5.850;2023-03-20T03:45:37;101529.66;;;9.59;76.58
51603;BME280;37954;51.980;5.850;2023-03-20T03:49:53;101549.22;;;9.53;76.42
51603;BME280;37954;51.980;5.850;2023-03-20T03:54:15;101538.22;;;9.41;76.53
51603;BME280;37954;51.980;5.850;2023-03-20T03:58:47;101544.75;;;9.32;76.94
51603;BME280;37954;51.980;5.850;2023-03-20T04:03:00;101546.59;;;9.32;76.97
51603;BME280;37954;51.980;5.850;2023-03-20T04:07:13;101531.69;;;9.23;77.63
51603;BME280;37954;51.980;5.850;2023-03-20T04:11:26;101525.44;;;9.16;77.74
51603;BME280;37954;51.980;5.850;2023-03-20T04:15:41;101530.81;;;9.16;77.61
51603;BME280;37954;51.980;5.850;2023-03-20T04:19:53;101511.09;;;9.02;77.79
51603;BME280;37954;51.980;5.850;2023-03-20T04:24:06;101515.63;;;9.01;78.17
51603;BME280;37954;51.980;5.850;2023-03-20T04:28:17;101503.41;;;8.92;78.32
51603;BME280;37954;51.980;5.850;2023-03-20T04:32:59;101521.72;;;8.89;78.27
51603;BME280;37954;51.980;5.850;2023-03-20T04:37:37;101528.91;;;8.88;78.41
51603;BME280;37954;51.980;5.850;2023-03-20T04:41:51;101517.91;;;8.77;78.51
51603;BME280;37954;51.980;5.850;2023-03-20T04:46:03;101505.44;;;8.69;78.30
51603;BME280;37954;51.980;5.850;2023-03-20T04:50:15;101506.25;;;8.63;79.06
51603;BME280;37954;51.980;5.850;2023-03-20T04:54:28;101521.72;;;8.67;78.74
51603;BME280;37954;51.980;5.850;2023-03-20T04:58:40;101522.16;;;8.71;78.86
51603;BME280;37954;51.980;5.850;2023-03-20T05:02:53;101516.94;;;8.63;79.10
51603;BME280;37954;51.980;5.850;2023-03-20T05:07:05;101509.47;;;8.58;79.28
51603;BME280;37954;51.980;5.850;2023-03-20T05:11:42;101522.94;;;8.65;79.63
51603;BME280;37954;51.980;5.850;2023-03-20T05:16:02;101506.88;;;8.65;79.36
51603;BME280;37954;51.980;5.850;2023-03-20T05:20:36;101515.53;;;8.67;79.40
51603;BME280;37954;51.980;5.850;2023-03-20T05:25:11;101509.94;;;8.62;79.10
51603;BME280;37954;51.980;5.850;2023-03-20T05:29:52;101509.56;;;8.65;79.32
51603;BME280;37954;51.980;5.850;2023-03-20T05:34:17;101516.81;;;8.71;79.32
51603;BME280;37954;51.980;5.850;2023-03-20T05:38:38;101504.19;;;8.65;79.05
51603;BME280;37954;51.980;5.850;2023-03-20T05:43:09;101509.75;;;8.63;78.99
51603;BME280;37954;51.980;5.850;2023-03-20T05:47:53;101511.59;;;8.63;78.88
51603;BME280;37954;51.980;5.850;2023-03-20T05:52:05;101505.16;;;8.57;78.88
51603;BME280;37954;51.980;5.850;2023-03-20T05:56:44;101535.09;;;8.67;79.03
51603;BME280;37954;51.980;5.850;2023-03-20T06:01:11;101517.16;;;8.61;78.79
51603;BME280;37954;51.980;5.850;2023-03-20T06:05:45;101527.47;;;8.64;78.83
51603;BME280;37954;51.980;5.850;2023-03-20T06:09:57;101553.94;;;8.74;78.70
51603;BME280;37954;51.980;5.850;2023-03-20T06:14:09;101537.34;;;8.64;78.67
51603;BME280;37954;51.980;5.850;2023-03-20T06:18:25;101540.09;;;8.70;78.79
51603;BME280;37954;51.980;5.850;2023-03-20T06:22:42;101547.56;;;8.75;78.72
51603;BME280;37954;51.980;5.850;2023-03-20T06:26:54;101551.75;;;8.84;78.95
51603;BME280;37954;51.980;5.850;2023-03-20T06:31:08;101558.13;;;9.04;78.71
51603;BME280;37954;51.980;5.850;2023-03-20T06:35:21;101546.63;;;9.11;78.28
51603;BME280;37954;51.980;5.850;2023-03-20T06:39:34;101552.34;;;9.29;78.04
51603;BME280;37954;51.980;5.850;2023-03-20T06:43:49;101529.69;;;9.31;77.75
51603;BME280;37954;51.980;5.850;2023-03-20T06:48:06;101535.53;;;9.41;77.30
51603;BME280;37954;51.980;5.850;2023-03-20T06:52:19;101554.34;;;9.48;77.17
51603;BME280;37954;51.980;5.850;2023-03-20T06:56:46;101568.41;;;9.50;77.12
51603;BME280;37954;51.980;5.850;2023-03-20T07:00:58;101567.44;;;9.36;76.86
51603;BME280;37954;51.980;5.850;2023-03-20T07:05:09;101545.63;;;9.12;76.86
51603;BME280;37954;51.980;5.850;2023-03-20T07:09:21;101564.03;;;9.21;76.64
51603;BME280;37954;51.980;5.850;2023-03-20T07:13:34;101571.31;;;9.27;77.13
51603;BME280;37954;51.980;5.850;2023-03-20T07:17:55;101563.84;;;9.23;77.14
51603;BME280;37954;51.980;5.850;2023-03-20T07:22:19;101568.81;;;9.26;77.28
51603;BME280;37954;51.980;5.850;2023-03-20T07:26:32;101576.09;;;9.32;77.16
51603;BME280;37954;51.980;5.850;2023-03-20T07:30:44;101565.56;;;9.30;76.99
51603;BME280;37954;51.980;5.850;2023-03-20T07:35:00;101566.22;;;9.32;76.88
51603;BME280;37954;51.980;5.850;2023-03-20T07:39:12;101560.34;;;9.22;77.14
51603;BME280;37954;51.980;5.850;2023-03-20T07:43:29;101558.47;;;9.23;77.03
51603;BME280;37954;51.980;5.850;2023-03-20T07:48:16;101579.63;;;9.39;76.63
51603;BME280;37954;51.980;5.850;2023-03-20T07:52:28;101574.09;;;9.40;76.80
51603;BME280;37954;51.980;5.850;2023-03-20T07:57:10;101581.66;;;9.58;76.91
51603;BME280;37954;51.980;5.850;2023-03-20T08:01:22;101579.97;;;9.51;77.07
51603;BME280;37954;51.980;5.850;2023-03-20T08:05:34;101574.63;;;9.57;76.81
51603;BME280;37954;51.980;5.850;2023-03-20T08:09:46;101581.91;;;9.63;76.73
51603;BME280;37954;51.980;5.850;2023-03-20T08:13:58;101579.00;;;9.65;76.23
51603;BME280;37954;51.980;5.850;2023-03-20T08:18:09;101562.44;;;9.55;75.87
51603;BME280;37954;51.980;5.850;2023-03-20T08:22:21;101561.59;;;9.54;76.13
51603;BME280;37954;51.980;5.850;2023-03-20T08:26:33;101557.03;;;9.48;75.39
51603;BME280;37954;51.980;5.850;2023-03-20T08:30:45;101568.63;;;9.55;75.69
51603;BME280;37954;51.980;5.850;2023-03-20T08:34:57;101566.47;;;9.72;76.02
51603;BME280;37954;51.980;5.850;2023-03-20T08:39:09;101571.47;;;9.82;75.42
51603;BME280;37954;51.980;5.850;2023-03-20T08:43:21;101572.75;;;9.86;75.41
51603;BME280;37954;51.980;5.850;2023-03-20T08:47:32;101572.13;;;9.90;74.86
51603;BME280;37954;51.980;5.850;2023-03-20T08:51:44;101556.22;;;9.89;74.65
51603;BME280;37954;51.980;5.850;2023-03-20T08:55:57;101548.19;;;9.89;74.57
51603;BME280;37954;51.980;5.850;2023-03-20T09:00:12;101562.72;;;10.07;74.18
51603;BME280;37954;51.980;5.850;2023-03-20T09:04:24;101556.38;;;10.15;73.75
51603;BME280;37954;51.980;5.850;2023-03-20T09:08:36;101558.06;;;10.23;73.65
51603;BME280;37954;51.980;5.850;2023-03-20T09:12:48;101556.69;;;10.40;73.17
51603;BME280;37954;51.980;5.850;2023-03-20T09:17:03;101541.59;;;10.32;72.66
51603;BME280;37954;51.980;5.850;2023-03-20T09:21:14;101559.44;;;10.53;72.19
51603;BME280;37954;51.980;5.850;2023-03-20T09:25:26;101571.06;;;10.73;71.72
51603;BME280;37954;51.980;5.850;2023-03-20T09:29:39;101563.59;;;10.75;70.95
51603;BME280;37954;51.980;5.850;2023-03-20T09:33:51;101563.19;;;10.78;70.88
51603;BME280;37954;51.980;5.850;2023-03-20T09:38:03;101564.44;;;10.82;69.73
51603;BME280;37954;51.980;5.850;2023-03-20T09:51:56;101586.78;;;10.90;69.97
51603;BME280;37954;51.980;5.850;2023-03-20T09:56:15;101603.31;;;10.93;70.67
51603;BME280;37954;51.980;5.850;2023-03-20T10:00:30;101578.50;;;10.85;71.25
51603;BME280;37954;51.980;5.850;2023-03-20T10:04:45;101599.84;;;11.06;72.23
51603;BME280;37954;51.980;5.850;2023-03-20T10:08:57;101603.16;;;11.34;72.97
51603;BME280;37954;51.980;5.850;2023-03-20T10:18:08;101581.84;;;11.52;72.17
51603;BME280;37954;51.980;5.850;2023-03-20T10:22:50;101594.84;;;11.75;71.40
51603;BME280;37954;51.980;5.850;2023-03-20T10:27:28;101583.66;;;11.85;70.81
51603;BME280;37954;51.980;5.850;2023-03-20T10:31:44;101582.38;;;12.01;70.09
51603;BME280;37954;51.980;5.850;2023-03-20T10:40:26;101569.53;;;12.09;69.64
51603;BME280;37954;51.980;5.850;2023-03-20T10:44:40;101568.44;;;12.17;69.72
51603;BME280;37954;51.980;5.850;2023-03-20T10:49:00;101573.38;;;12.27;69.68
51603;BME280;37954;51.980;5.850;2023-03-20T10:53:22;101580.94;;;12.49;69.43
51603;BME280;37954;51.980;5.850;2023-03-20T10:57:41;101568.94;;;12.45;68.29
51603;BME280;37954;51.980;5.850;2023-03-20T11:01:57;101570.00;;;12.44;67.58
51603;BME280;37954;51.980;5.850;2023-03-20T11:06:19;101565.69;;;12.30;66.78
51603;BME280;37954;51.980;5.850;2023-03-20T11:10:35;101560.34;;;12.17;67.24
51603;BME280;37954;51.980;5.850;2023-03-20T11:14:47;101571.19;;;12.10;67.78
51603;BME280;37954;51.980;5.850;2023-03-20T11:19:05;101567.88;;;12.08;67.92
51603;BME280;37954;51.980;5.850;2023-03-20T11:23:29;101553.63;;;11.95;68.78
51603;BME280;37954;51.980;5.850;2023-03-20T11:27:43;101559.03;;;11.81;68.82
51603;BME280;37954;51.980;5.850;2023-03-20T11:32:03;101560.28;;;11.72;69.11
51603;BME280;37954;51.980;5.850;2023-03-20T11:36:24;101545.78;;;11.80;69.63
51603;BME280;37954;51.980;5.850;2023-03-20T11:40:38;101537.91;;;11.78;69.79
51603;BME280;37954;51.980;5.850;2023-03-20T11:44:59;101537.22;;;11.96;69.38
51603;BME280;37954;51.980;5.850;2023-03-20T11:49:22;101522.09;;;12.08;68.56
51603;BME280;37954;51.980;5.850;2023-03-20T11:53:40;101540.59;;;12.30;68.37
51603;BME280;37954;51.980;5.850;2023-03-20T11:57:59;101530.84;;;12.35;67.87
51603;BME280;37954;51.980;5.850;2023-03-20T12:02:19;101528.34;;;12.40;67.16
51603;BME280;37954;51.980;5.850;2023-03-20T12:11:08;101538.28;;;12.40;66.52
51603;BME280;37954;51.980;5.850;2023-03-20T12:15:28;101523.41;;;12.31;66.94
51603;BME280;37954;51.980;5.850;2023-03-20T12:19:41;101535.63;;;12.33;66.97
51603;BME280;37954;51.980;5.850;2023-03-20T12:28:19;101519.19;;;12.03;67.96
51603;BME280;37954;51.980;5.850;2023-03-20T12:32:50;101497.94;;;11.89;68.37
51603;BME280;37954;51.980;5.850;2023-03-20T12:37:08;101490.69;;;11.82;69.21
51603;BME280;37954;51.980;5.850;2023-03-20T12:41:28;101501.25;;;11.84;69.61
51603;BME280;37954;51.980;5.850;2023-03-20T12:54:46;101483.75;;;12.06;70.31
51603;BME280;37954;51.980;5.850;2023-03-20T12:59:08;101484.16;;;12.10;70.35
51603;BME280;37954;51.980;5.850;2023-03-20T13:16:47;101467.50;;;12.26;72.42
51603;BME280;37954;51.980;5.850;2023-03-20T13:21:09;101467.94;;;12.23;72.46
51603;BME280;37954;51.980;5.850;2023-03-20T13:25:35;101457.25;;;12.03;72.55
51603;BME280;37954;51.980;5.850;2023-03-20T13:30:06;101476.53;;;12.00;73.34
51603;BME280;37954;51.980;5.850;2023-03-20T13:34:29;101447.00;;;11.80;73.79
51603;BME280;37954;51.980;5.850;2023-03-20T13:38:47;101436.44;;;11.79;74.16
51603;BME280;37954;51.980;5.850;2023-03-20T13:47:37;101454.06;;;11.75;74.02
51603;BME280;37954;51.980;5.850;2023-03-20T13:56:24;101433.16;;;11.70;74.24
51603;BME280;37954;51.980;5.850;2023-03-20T14:00:46;101439.38;;;11.71;74.84
51603;BME280;37954;51.980;5.850;2023-03-20T14:05:04;101434.81;;;11.65;75.72
51603;BME280;37954;51.980;5.850;2023-03-20T14:09:25;101443.72;;;11.72;75.47
51603;BME280;37954;51.980;5.850;2023-03-20T14:13:38;101434.22;;;11.63;75.84
51603;BME280;37954;51.980;5.850;2023-03-20T14:17:50;101431.72;;;11.61;75.78
51603;BME280;37954;51.980;5.850;2023-03-20T14:22:02;101433.00;;;11.59;75.77
51603;BME280;37954;51.980;5.850;2023-03-20T14:26:19;101420.78;;;11.56;75.66
51603;BME280;37954;51.980;5.850;2023-03-20T14:44:04;101438.00;;;11.48;76.41
51603;BME280;37954;51.980;5.850;2023-03-20T14:48:34;101425.22;;;11.37;77.09
51603;BME280;37954;51.980;5.850;2023-03-20T14:52:58;101410.53;;;11.27;77.64
51603;BME280;37954;51.980;5.850;2023-03-20T14:57:17;101416.16;;;11.25;77.47
51603;BME280;37954;51.980;5.850;2023-03-20T15:05:55;101430.53;;;11.44;77.28
51603;BME280;37954;51.980;5.850;2023-03-20T15:10:08;101425.22;;;11.37;77.34
51603;BME280;37954;51.980;5.850;2023-03-20T15:14:24;101412.19;;;11.28;77.83
51603;BME280;37954;51.980;5.850;2023-03-20T15:18:42;101425.25;;;11.24;78.20
51603;BME280;37954;51.980;5.850;2023-03-20T15:22:57;101419.41;;;11.27;78.05
51603;BME280;37954;51.980;5.850;2023-03-20T15:27:10;101413.47;;;11.19;78.97
51603;BME280;37954;51.980;5.850;2023-03-20T15:31:26;101408.50;;;11.09;79.37
51603;BME280;37954;51.980;5.850;2023-03-20T15:35:40;101410.97;;;11.17;79.55
51603;BME280;37954;51.980;5.850;2023-03-20T15:39:57;101416.56;;;11.22;79.24
51603;BME280;37954;51.980;5.850;2023-03-20T15:48:25;101413.25;;;11.13;80.12
51603;BME280;37954;51.980;5.850;2023-03-20T15:52:45;101420.09;;;11.16;80.00
51603;BME280;37954;51.980;5.850;2023-03-20T15:57:03;101419.25;;;11.09;81.55
51603;BME280;37954;51.980;5.850;2023-03-20T16:01:18;101402.13;;;10.97;81.80
51603;BME280;37954;51.980;5.850;2023-03-20T16:05:31;101403.56;;;10.93;81.84
51603;BME280;37954;51.980;5.850;2023-03-20T16:09:43;101408.13;;;10.92;82.18
51603;BME280;37954;51.980;5.850;2023-03-20T16:13:56;101406.25;;;10.93;81.46
51603;BME280;37954;51.980;5.850;2023-03-20T16:18:12;101385.81;;;10.78;82.73
51603;BME280;37954;51.980;5.850;2023-03-20T16:22:29;101404.22;;;10.88;83.05
51603;BME280;37954;51.980;5.850;2023-03-20T16:26:44;101404.63;;;10.85;82.81
51603;BME280;37954;51.980;5.850;2023-03-20T16:31:11;101377.13;;;10.76;83.26
51603;BME280;37954;51.980;5.850;2023-03-20T16:35:26;101395.94;;;10.90;83.26
51603;BME280;37954;51.980;5.850;2023-03-20T16:39:40;101375.06;;;10.85;82.96
51603;BME280;37954;51.980;5.850;2023-03-20T16:43:54;101389.72;;;10.96;83.02
51603;BME280;37954;51.980;5.850;2023-03-20T16:52:30;101372.56;;;10.97;82.60
51603;BME280;37954;51.980;5.850;2023-03-20T16:56:50;101377.31;;;11.01;82.20
51603;BME280;37954;51.980;5.850;2023-03-20T17:01:04;101373.78;;;10.94;82.29
51603;BME280;37954;51.980;5.850;2023-03-20T17:05:19;101361.59;;;10.92;82.39
51603;BME280;37954;51.980;5.850;2023-03-20T17:09:31;101393.00;;;11.11;82.52
51603;BME280;37954;51.980;5.850;2023-03-20T17:13:43;101387.66;;;11.04;82.40
51603;BME280;37954;51.980;5.850;2023-03-20T17:17:55;101392.00;;;11.05;82.26
51603;BME280;37954;51.980;5.850;2023-03-20T17:22:17;101398.97;;;11.13;81.87
51603;BME280;37954;51.980;5.850;2023-03-20T17:26:29;101374.41;;;10.96;82.37
51603;BME280;37954;51.980;5.850;2023-03-20T17:30:41;101368.84;;;10.91;82.04
51603;BME280;37954;51.980;5.850;2023-03-20T17:34:53;101391.38;;;10.97;82.33
51603;BME280;37954;51.980;5.850;2023-03-20T17:39:05;101389.31;;;10.92;81.87
51603;BME280;37954;51.980;5.850;2023-03-20T17:43:17;101395.31;;;10.88;81.97
51603;BME280;37954;51.980;5.850;2023-03-20T17:47:30;101381.06;;;10.87;82.27
51603;BME280;37954;51.980;5.850;2023-03-20T17:51:42;101400.06;;;10.92;82.53
51603;BME280;37954;51.980;5.850;2023-03-20T17:55:54;101379.19;;;10.88;82.38
51603;BME280;37954;51.980;5.850;2023-03-20T18:00:16;101389.75;;;10.89;82.27
51603;BME280;37954;51.980;5.850;2023-03-20T18:04:29;101378.59;;;10.79;82.57
51603;BME280;37954;51.980;5.850;2023-03-20T18:08:41;101392.63;;;10.88;82.37
51603;BME280;37954;51.980;5.850;2023-03-20T18:12:52;101396.53;;;10.92;82.39
51603;BME280;37954;51.980;5.850;2023-03-20T18:17:05;101387.06;;;10.82;82.69
51603;BME280;37954;51.980;5.850;2023-03-20T18:21:17;101391.19;;;10.85;82.43
51603;BME280;37954;51.980;5.850;2023-03-20T18:25:29;101384.16;;;10.91;82.42
51603;BME280;37954;51.980;5.850;2023-03-20T18:29:40;101390.53;;;10.96;82.11
51603;BME280;37954;51.980;5.850;2023-03-20T18:33:52;101384.53;;;10.94;82.11
51603;BME280;37954;51.980;5.850;2023-03-20T18:38:04;101409.34;;;11.03;81.89
51603;BME280;37954;51.980;5.850;2023-03-20T18:42:16;101384.38;;;10.82;82.13
51603;BME280;37954;51.980;5.850;2023-03-20T18:46:28;101373.22;;;10.86;82.41
51603;BME280;37954;51.980;5.850;2023-03-20T18:50:40;101390.75;;;10.95;82.43
51603;BME280;37954;51.980;5.850;2023-03-20T18:54:53;101377.53;;;10.87;82.40
51603;BME280;37954;51.980;5.850;2023-03-20T18:59:05;101391.59;;;10.89;82.59
51603;BME280;37954;51.980;5.850;2023-03-20T19:03:19;101373.63;;;10.82;82.92
51603;BME280;37954;51.980;5.850;2023-03-20T19:07:34;101381.47;;;10.84;82.72
51603;BME280;37954;51.980;5.850;2023-03-20T19:11:46;101378.34;;;11.00;82.55
51603;BME280;37954;51.980;5.850;2023-03-20T19:15:58;101367.63;;;10.87;82.84
51603;BME280;37954;51.980;5.850;2023-03-20T19:20:35;101387.66;;;11.04;82.94
51603;BME280;37954;51.980;5.850;2023-03-20T19:24:48;101372.75;;;10.95;82.49
51603;BME280;37954;51.980;5.850;2023-03-20T19:29:00;101377.09;;;10.96;82.74
51603;BME280;37954;51.980;5.850;2023-03-20T19:33:13;101371.94;;;10.95;82.90
51603;BME280;37954;51.980;5.850;2023-03-20T19:37:25;101356.66;;;10.89;82.74
51603;BME280;37954;51.980;5.850;2023-03-20T19:41:36;101376.06;;;10.97;83.39
51603;BME280;37954;51.980;5.850;2023-03-20T19:45:49;101387.22;;;11.01;83.20
51603;BME280;37954;51.980;5.850;2023-03-20T19:54:37;101365.72;;;10.94;83.61
51603;BME280;37954;51.980;5.850;2023-03-20T19:59:06;101359.72;;;10.92;83.64
51603;BME280;37954;51.980;5.850;2023-03-20T20:03:23;101372.56;;;10.97;83.96
51603;BME280;37954;51.980;5.850;2023-03-20T20:07:35;101362.63;;;10.97;84.03
51603;BME280;37954;51.980;5.850;2023-03-20T20:12:07;101363.88;;;11.01;83.94
51603;BME280;37954;51.980;5.850;2023-03-20T20:16:18;101358.06;;;11.04;84.38
51603;BME280;37954;51.980;5.850;2023-03-20T20:20:30;101361.38;;;11.00;84.28
51603;BME280;37954;51.980;5.850;2023-03-20T20:24:45;101373.78;;;11.07;84.64
51603;BME280;37954;51.980;5.850;2023-03-20T20:28:57;101353.31;;;11.00;85.35
51603;BME280;37954;51.980;5.850;2023-03-20T20:33:08;101340.72;;;10.94;85.27
51603;BME280;37954;51.980;5.850;2023-03-20T20:37:22;101367.59;;;11.07;85.32
51603;BME280;37954;51.980;5.850;2023-03-20T20:41:54;101354.56;;;10.97;85.23
51603;BME280;37954;51.980;5.850;2023-03-20T20:46:05;101366.13;;;11.04;85.58
51603;BME280;37954;51.980;5.850;2023-03-20T20:50:20;101373.34;;;11.10;85.67
51603;BME280;37954;51.980;5.850;2023-03-20T20:54:32;101358.28;;;11.03;85.90
51603;BME280;37954;51.980;5.850;2023-03-20T20:58:44;101342.78;;;10.92;86.27
51603;BME280;37954;51.980;5.850;2023-03-20T21:02:56;101342.78;;;10.92;86.53
51603;BME280;37954;51.980;5.850;2023-03-20T21:07:12;101354.78;;;10.96;87.50
51603;BME280;37954;51.980;5.850;2023-03-20T21:11:24;101344.25;;;10.88;88.02
51603;BME280;37954;51.980;5.850;2023-03-20T21:15:35;101345.72;;;10.90;87.88
51603;BME280;37954;51.980;5.850;2023-03-20T21:19:48;101334.53;;;10.80;87.77
51603;BME280;37954;51.980;5.850;2023-03-20T21:24:00;101351.91;;;10.91;88.79
51603;BME280;37954;51.980;5.850;2023-03-20T21:28:12;101352.50;;;10.93;89.47
51603;BME280;37954;51.980;5.850;2023-03-20T21:32:24;101340.53;;;10.82;89.47
51603;BME280;37954;51.980;5.850;2023-03-20T21:36:42;101353.56;;;10.85;90.02
51603;BME280;37954;51.980;5.850;2023-03-20T21:41:09;101351.91;;;10.91;90.07
51603;BME280;37954;51.980;5.850;2023-03-20T21:45:21;101336.00;;;10.82;90.12
51603;BME280;37954;51.980;5.850;2023-03-20T21:49:56;101348.16;;;10.92;89.48
51603;BME280;37954;51.980;5.850;2023-03-20T21:54:27;101348.97;;;10.99;89.38
51603;BME280;37954;51.980;5.850;2023-03-20T21:58:59;101344.63;;;10.91;88.89
51603;BME280;37954;51.980;5.850;2023-03-20T22:03:31;101357.03;;;10.99;89.18
51603;BME280;37954;51.980;5.850;2023-03-20T22:08:03;101352.28;;;10.94;89.55
51603;BME280;37954;51.980;5.850;2023-03-20T22:12:34;101354.34;;;10.99;88.96
51603;BME280;37954;51.980;5.850;2023-03-20T22:17:06;101345.06;;;10.95;89.11
51603;BME280;37954;51.980;5.850;2023-03-20T22:21:38;101356.00;;;11.06;88.77
51603;BME280;37954;51.980;5.850;2023-03-20T22:26:10;101346.50;;;11.04;88.53
51603;BME280;37954;51.980;5.850;2023-03-20T22:30:42;101346.28;;;11.05;88.44
51603;BME280;37954;51.980;5.850;2023-03-20T22:35:14;101343.81;;;11.04;88.33
51603;BME280;37954;51.980;5.850;2023-03-20T22:39:45;101346.44;;;11.10;88.49
51603;BME280;37954;51.980;5.850;2023-03-20T22:44:18;101332.38;;;11.08;88.16
51603;BME280;37954;51.980;5.850;2023-03-20T22:48:50;101327.25;;;11.07;88.11
51603;BME280;37954;51.980;5.850;2023-03-20T22:53:02;101343.97;;;11.15;88.22
51603;BME280;37954;51.980;5.850;2023-03-20T22:57:13;101333.63;;;11.12;88.13
51603;BME280;37954;51.980;5.850;2023-03-20T23:01:25;101329.69;;;11.08;88.09
51603;BME280;37954;51.980;5.850;2023-03-20T23:05:38;101324.97;;;11.04;88.27
51603;BME280;37954;51.980;5.850;2023-03-20T23:09:51;101328.28;;;11.06;87.99
51603;BME280;37954;51.980;5.850;2023-03-20T23:14:02;101328.09;;;11.07;87.99
51603;BME280;37954;51.980;5.850;2023-03-20T23:18:21;101329.13;;;11.06;87.90
51603;BME280;37954;51.980;5.850;2023-03-20T23:22:33;101327.25;;;11.07;88.03
51603;BME280;37954;51.980;5.850;2023-03-20T23:26:45;101332.81;;;11.12;87.99
51603;BME280;37954;51.980;5.850;2023-03-20T23:31:29;101298.34;;;10.89;87.89
51603;BME280;37954;51.980;5.850;2023-03-20T23:35:41;101339.22;;;11.11;87.99
51603;BME280;37954;51.980;5.850;2023-03-20T23:39:52;101319.19;;;11.00;88.16
51603;BME280;37954;51.980;5.850;2023-03-20T23:44:04;101324.78;;;10.99;88.63
51603;BME280;37954;51.980;5.850;2023-03-20T23:48:16;101330.34;;;11.04;88.66
51603;BME280;37954;51.980;5.850;2023-03-20T23:52:28;101332.63;;;11.00;89.29
51603;BME280;37954;51.980;5.850;2023-03-20T23:56:40;101317.13;;;10.96;89.16
